Time;durP1;ratioP1;P1;durP2;ratioP2;P2;SDS_P1;SDS_P2;PMS_P1;PMS_P2;Temp;Humidity;BMP_temperature;BMP_pressure;BME280_temperature;BME280_humidity;BME280_pressure;Samples;Min_cycle;Max_cycle;Signal;HPM_P1;HPM_P2
2021/01/22 00:02:24;;;;;;;1.20;1.10;;;;;;;2.83;83.41;98331.94;5025392;28;20207;-76
2021/01/22 00:04:51;;;;;;;0.73;0.73;;;;;;;2.86;83.63;98344.94;5025432;28;20706;-76
2021/01/22 00:07:18;;;;;;;1.17;1.00;;;;;;;2.87;83.45;98336.03;5026042;28;20208;-76
2021/01/22 00:09:45;;;;;;;0.90;0.90;;;;;;;2.92;83.44;98331.22;5019270;28;20202;-76
2021/01/22 00:12:13;;;;;;;1.37;0.87;;;;;;;2.78;83.73;98321.69;5023430;28;20201;-76
2021/01/22 00:14:40;;;;;;;0.77;0.73;;;;;;;2.80;83.58;98331.19;5013575;28;20793;-76
2021/01/22 00:17:08;;;;;;;3.73;1.00;;;;;;;2.96;83.56;98330.03;5026084;28;20216;-75
2021/01/22 00:19:35;;;;;;;0.63;0.60;;;;;;;2.55;83.51;98277.53;5025781;28;20257;-76
2021/01/22 00:22:02;;;;;;;1.33;0.80;;;;;;;2.82;83.61;98327.59;5026338;28;20767;-76
2021/01/22 00:24:29;;;;;;;2.63;0.80;;;;;;;2.76;83.46;98328.91;5023371;28;20608;-76
2021/01/22 00:26:56;;;;;;;1.90;0.90;;;;;;;2.78;83.53;98330.47;5021584;28;20296;-75
2021/01/22 00:29:24;;;;;;;0.77;0.77;;;;;;;2.86;83.20;98323.75;5020125;28;20288;-75
2021/01/22 00:31:51;;;;;;;3.30;0.90;;;;;;;2.95;83.41;98328.34;5024264;28;20206;-75
2021/01/22 00:34:19;;;;;;;0.80;0.73;;;;;;;2.97;83.36;98327.25;5025820;28;20510;-75
2021/01/22 00:36:46;;;;;;;2.07;0.90;;;;;;;2.85;83.25;98325.56;5025296;28;20234;-75
2021/01/22 00:39:13;;;;;;;1.50;0.80;;;;;;;2.76;83.68;98311.19;5024690;28;20771;-76
2021/01/22 00:41:40;;;;;;;3.00;1.20;;;;;;;2.79;83.50;98313.63;5025793;28;20575;-75
2021/01/22 00:44:07;;;;;;;0.70;0.70;;;;;;;2.89;83.77;98312.91;5015255;28;20692;-75
2021/01/22 00:46:35;;;;;;;2.10;0.80;;;;;;;2.95;83.18;98312.44;5025937;28;20385;-75
2021/01/22 00:49:02;;;;;;;1.30;0.83;;;;;;;2.90;83.24;98309.31;5025456;28;20203;-75
2021/01/22 00:51:31;;;;;;;1.00;0.80;;;;;;;2.93;83.50;98314.38;5023893;28;20228;-75
2021/01/22 00:53:59;;;;;;;0.73;0.73;;;;;;;2.90;83.35;98312.78;5024418;28;20733;-75
2021/01/22 00:56:32;;;;;;;2.30;0.90;;;;;;;2.89;83.40;98312.91;5024432;28;20675;-75
2021/01/22 00:59:01;;;;;;;0.70;0.70;;;;;;;3.00;83.28;98316.44;5016549;28;20211;-75
2021/01/22 01:01:33;;;;;;;13.43;10.27;;;;;;;2.91;83.19;98313.63;5024648;28;20202;-75
2021/01/22 01:04:03;;;;;;;1.10;1.07;;;;;;;2.89;83.01;98310.25;5023721;28;20214;-75
2021/01/22 01:06:44;;;;;;;1.20;1.10;;;;;;;2.92;82.67;98308.22;5023038;28;20241;-75
2021/01/22 01:09:13;;;;;;;0.90;0.90;;;;;;;2.84;83.00;98302.66;5028395;28;20202;-75
2021/01/22 01:12:01;;;;;;;2.77;1.80;;;;;;;2.95;82.96;98302.69;5024424;28;20224;-75
2021/01/22 01:14:41;;;;;;;1.03;0.90;;;;;;;2.98;82.82;98299.78;5039099;28;20224;-75
2021/01/22 01:17:09;;;;;;;0.77;0.77;;;;;;;2.97;82.99;98290.16;5044198;28;20229;-75
2021/01/22 01:19:36;;;;;;;1.07;1.07;;;;;;;2.96;83.19;98288.47;5028832;28;20382;-75
2021/01/22 01:22:04;;;;;;;0.80;0.80;;;;;;;2.89;83.15;98271.34;5028943;28;20237;-75
2021/01/22 01:24:31;;;;;;;1.13;0.83;;;;;;;2.98;83.09;98297.16;5028479;28;20202;-75
2021/01/22 01:26:58;;;;;;;6.10;1.17;;;;;;;3.06;83.31;98293.91;5027572;28;20202;-75
2021/01/22 01:29:25;;;;;;;1.13;1.10;;;;;;;3.00;83.09;98289.06;5022528;28;20740;-76
2021/01/22 01:31:52;;;;;;;1.47;0.80;;;;;;;2.98;82.57;98307.75;5028192;28;20208;-75
2021/01/22 01:34:20;;;;;;;4.33;1.30;;;;;;;3.01;82.81;98293.41;5028674;28;20210;-75
2021/01/22 01:36:47;;;;;;;2.87;0.67;;;;;;;2.88;82.85;98288.22;5027858;28;20328;-75
2021/01/22 01:39:15;;;;;;;1.20;1.10;;;;;;;2.93;82.92;98291.34;5021803;28;20222;-76
2021/01/22 01:41:42;;;;;;;4.60;1.00;;;;;;;2.92;82.81;98286.19;5025697;28;20205;-75
2021/01/22 01:44:09;;;;;;;2.13;1.20;;;;;;;2.89;82.61;98281.94;5018336;28;20207;-75
2021/01/22 01:46:37;;;;;;;3.60;0.80;;;;;;;2.92;83.07;98288.81;5029528;28;20211;-75
2021/01/22 01:49:04;;;;;;;2.20;0.70;;;;;;;2.91;82.53;98290.63;5027050;28;20603;-75
2021/01/22 01:51:31;;;;;;;1.23;0.80;;;;;;;2.76;82.46;98258.22;5028420;28;20203;-75
2021/01/22 01:53:59;;;;;;;2.57;1.23;;;;;;;3.02;82.59;98276.53;5027370;28;20209;-75
2021/01/22 01:56:29;;;;;;;1.83;1.03;;;;;;;3.03;82.28;98275.59;5024720;28;20631;-76
2021/01/22 01:58:57;;;;;;;0.70;0.70;;;;;;;2.94;81.79;98277.13;5013995;28;20235;-75
2021/01/22 02:01:26;;;;;;;6.13;0.83;;;;;;;2.98;82.39;98285.69;5022778;28;20951;-75
2021/01/22 02:03:54;;;;;;;0.73;0.73;;;;;;;3.00;82.09;98289.06;5020384;28;20206;-76
2021/01/22 02:06:21;;;;;;;3.73;0.77;;;;;;;2.99;82.66;98279.44;5021100;28;20196;-76
2021/01/22 02:08:48;;;;;;;0.77;0.70;;;;;;;2.89;82.59;98267.84;5020375;28;20282;-75
2021/01/22 02:11:16;;;;;;;1.13;0.87;;;;;;;2.89;82.14;98287.25;5023333;28;20211;-75
2021/01/22 02:13:48;;;;;;;3.33;0.90;;;;;;;2.88;82.82;98277.63;5011854;28;20210;-76
2021/01/22 02:16:16;;;;;;;0.87;0.73;;;;;;;2.78;82.69;98277.47;5022978;28;20252;-76
2021/01/22 02:18:45;;;;;;;1.50;0.90;;;;;;;2.66;83.43;98253.69;5028183;28;20203;-76
2021/01/22 02:21:24;;;;;;;0.97;0.97;;;;;;;2.86;82.71;98274.25;5023499;28;20214;-76
2021/01/22 02:23:53;;;;;;;1.00;0.80;;;;;;;2.80;82.77;98282.66;5025648;28;20202;-76
2021/01/22 02:26:46;;;;;;;1.40;0.83;;;;;;;2.83;82.63;98279.78;5026193;28;20218;-76
2021/01/22 02:29:16;;;;;;;4.97;1.00;;;;;;;2.84;82.87;98268.22;5013699;28;20214;-76
2021/01/22 02:31:45;;;;;;;1.67;0.80;;;;;;;2.82;82.91;98280.75;5025622;28;20639;-76
2021/01/22 02:34:16;;;;;;;1.50;0.90;;;;;;;2.83;82.87;98266.53;5027524;28;20207;-76
2021/01/22 02:36:45;;;;;;;0.83;0.83;;;;;;;2.85;82.83;98263.75;5027361;28;20247;-76
2021/01/22 02:39:17;;;;;;;1.10;0.70;;;;;;;2.89;82.95;98265.22;5039335;28;20227;-76
2021/01/22 02:41:46;;;;;;;1.43;0.90;;;;;;;2.86;82.89;98268.94;5026368;28;20205;-75
2021/01/22 02:44:14;;;;;;;1.00;0.90;;;;;;;2.83;82.97;98269.19;5023973;28;20660;-76
2021/01/22 02:46:41;;;;;;;0.67;0.67;;;;;;;2.92;82.94;98270.28;5022774;28;20213;-76
2021/01/22 02:49:09;;;;;;;0.70;0.70;;;;;;;2.82;82.99;98266.66;5027297;28;20191;-76
2021/01/22 02:51:36;;;;;;;5.67;2.23;;;;;;;2.80;82.79;98269.41;5027174;28;20296;-76
2021/01/22 02:54:03;;;;;;;24.47;13.93;;;;;;;2.94;82.78;98261.25;5025740;28;20206;-76
2021/01/22 02:56:42;;;;;;;4.23;2.60;;;;;;;2.97;82.87;98260.16;5027157;28;20692;-76
2021/01/22 02:59:21;;;;;;;1.40;1.10;;;;;;;2.93;82.88;98267.50;5023953;28;20578;-76
2021/01/22 03:02:00;;;;;;;1.87;1.10;;;;;;;2.86;82.83;98262.78;5020971;28;20232;-76
2021/01/22 03:04:28;;;;;;;5.80;1.00;;;;;;;2.80;83.39;98251.72;5016583;28;20744;-77
2021/01/22 03:06:58;;;;;;;1.43;0.97;;;;;;;2.82;82.78;98259.53;5026262;28;20203;-76
2021/01/22 03:09:27;;;;;;;3.90;1.20;;;;;;;2.85;83.23;98254.00;5017112;28;20978;-76
2021/01/22 03:11:55;;;;;;;2.60;1.40;;;;;;;2.74;82.78;98246.84;5026411;28;20224;-76
2021/01/22 03:14:25;;;;;;;2.03;1.90;;;;;;;2.90;83.07;98248.34;5012467;28;20286;-76
2021/01/22 03:16:52;;;;;;;1.23;0.97;;;;;;;2.86;82.45;98249.53;5026301;28;20483;-76
2021/01/22 03:19:20;;;;;;;1.13;1.00;;;;;;;2.91;82.94;98248.22;5026795;28;20225;-76
2021/01/22 03:21:47;;;;;;;1.97;0.83;;;;;;;2.82;82.69;98242.78;5026558;28;20698;-76
2021/01/22 03:24:14;;;;;;;2.20;1.20;;;;;;;2.86;82.76;98244.25;5026085;28;20213;-76
2021/01/22 03:26:41;;;;;;;1.50;0.90;;;;;;;2.77;82.84;98244.00;5026510;28;20614;-76
2021/01/22 03:29:08;;;;;;;4.27;0.90;;;;;;;2.79;82.79;98235.94;5020581;28;20206;-76
2021/01/22 03:31:36;;;;;;;2.33;1.10;;;;;;;2.82;82.63;98235.69;5026530;28;20210;-76
2021/01/22 03:34:03;;;;;;;6.07;1.47;;;;;;;2.89;82.90;98234.25;5026688;28;20212;-75
2021/01/22 03:36:31;;;;;;;3.43;1.03;;;;;;;2.88;82.32;98227.25;5025470;28;20235;-76
2021/01/22 03:38:58;;;;;;;1.90;1.30;;;;;;;2.78;82.41;98229.78;5025169;28;20205;-76
2021/01/22 03:41:25;;;;;;;3.40;1.37;;;;;;;2.76;82.64;98225.56;5024251;28;20562;-76
2021/01/22 03:43:52;;;;;;;2.47;0.87;;;;;;;2.73;82.83;98231.06;5020698;28;20206;-76
2021/01/22 03:46:20;;;;;;;0.77;0.77;;;;;;;2.79;82.56;98223.53;5026410;28;20579;-76
2021/01/22 03:48:48;;;;;;;3.37;1.53;;;;;;;2.80;82.78;98224.38;5024681;28;20205;-76
2021/01/22 03:51:15;;;;;;;0.80;0.80;;;;;;;2.74;82.95;98235.41;5026475;28;20647;-75
2021/01/22 03:53:42;;;;;;;0.87;0.87;;;;;;;2.67;83.41;98242.13;5024500;28;20562;-76
2021/01/22 03:56:09;;;;;;;3.73;1.00;;;;;;;2.76;83.29;98241.47;5026318;28;20213;-76
2021/01/22 03:58:36;;;;;;;0.63;0.63;;;;;;;2.67;83.20;98223.59;5019251;28;20597;-76
2021/01/22 04:01:04;;;;;;;1.87;0.93;;;;;;;2.73;83.30;98226.63;5025666;28;20217;-76
2021/01/22 04:03:31;;;;;;;2.00;0.90;;;;;;;2.75;83.36;98222.03;5021114;28;20468;-76
2021/01/22 04:05:59;;;;;;;4.83;0.70;;;;;;;2.72;83.81;98211.69;5016154;28;20199;-75
2021/01/22 04:08:26;;;;;;;0.57;0.57;;;;;;;2.72;83.91;98218.78;5019657;28;20210;-76
2021/01/22 04:10:54;;;;;;;0.77;0.77;;;;;;;2.72;83.88;98216.97;5023572;28;20202;-76
2021/01/22 04:13:21;;;;;;;0.67;0.67;;;;;;;2.73;83.73;98223.97;5021425;28;20208;-76
2021/01/22 04:15:48;;;;;;;2.00;0.80;;;;;;;2.86;83.61;98220.41;5025206;28;20680;-75
2021/01/22 04:18:15;;;;;;;1.80;1.00;;;;;;;2.76;83.48;98218.47;5022312;28;20768;-76
2021/01/22 04:20:43;;;;;;;1.07;0.80;;;;;;;2.79;83.98;98217.38;5025396;28;20318;-76
2021/01/22 04:23:11;;;;;;;2.83;1.10;;;;;;;2.79;83.93;98212.09;5014713;28;20417;-76
2021/01/22 04:25:38;;;;;;;0.97;0.97;;;;;;;2.85;83.58;98213.41;5020399;28;20306;-76
2021/01/22 04:28:06;;;;;;;1.80;0.80;;;;;;;2.82;83.70;98213.66;5021636;28;20220;-76
2021/01/22 04:30:33;;;;;;;1.33;0.93;;;;;;;2.84;84.02;98209.06;5015980;28;20198;-76
2021/01/22 04:33:01;;;;;;;0.97;0.63;;;;;;;2.84;83.87;98209.06;5025271;28;20205;-76
2021/01/22 04:35:28;;;;;;;2.70;0.90;;;;;;;2.80;83.96;98204.00;5031461;28;20624;-76
2021/01/22 04:37:56;;;;;;;1.97;0.87;;;;;;;2.97;83.29;98212.44;5028574;28;20210;-76
2021/01/22 04:40:25;;;;;;;0.87;0.70;;;;;;;2.97;83.68;98204.50;5025726;28;20653;-76
2021/01/22 04:42:52;;;;;;;4.63;1.07;;;;;;;2.90;83.99;98203.28;5015570;28;20612;-75
2021/01/22 04:45:20;;;;;;;2.87;0.63;;;;;;;3.00;83.90;98194.50;5023709;28;20439;-76
2021/01/22 04:47:47;;;;;;;186.57;64.43;;;;;;;3.08;83.73;98186.81;5026929;28;20670;-76
2021/01/22 04:50:16;;;;;;;9.07;6.23;;;;;;;3.10;83.60;98187.53;5029409;28;20743;-76
2021/01/22 04:52:45;;;;;;;1.33;1.23;;;;;;;3.02;83.70;98176.66;5037611;28;20228;-75
2021/01/22 04:55:14;;;;;;;4.97;1.50;;;;;;;3.21;83.70;98176.06;5032822;28;20209;-76
2021/01/22 04:57:44;;;;;;;1.23;0.80;;;;;;;3.13;83.52;98172.34;5027247;28;20202;-76
2021/01/22 05:00:13;;;;;;;3.27;1.50;;;;;;;3.13;83.90;98167.88;5026319;28;20246;-76
2021/01/22 05:02:40;;;;;;;1.03;0.90;;;;;;;2.92;83.48;98112.09;5017938;28;20198;-76
2021/01/22 05:05:09;;;;;;;1.93;1.20;;;;;;;3.26;83.51;98157.13;5028533;28;20753;-76
2021/01/22 05:07:36;;;;;;;3.27;1.03;;;;;;;3.30;83.10;98154.09;5023660;28;20199;-76
2021/01/22 05:10:04;;;;;;;2.83;0.90;;;;;;;3.30;83.17;98155.91;5019585;28;20705;-75
2021/01/22 05:12:35;;;;;;;6.00;1.37;;;;;;;3.30;82.96;98146.16;5012079;28;20213;-76
2021/01/22 05:15:17;;;;;;;2.50;1.30;;;;;;;3.40;83.09;98143.63;5017479;28;20278;-76
2021/01/22 05:17:56;;;;;;;1.20;1.10;;;;;;;3.33;83.00;98126.50;5024647;28;20204;-76
2021/01/22 05:20:32;;;;;;;0.77;0.70;;;;;;;3.39;83.27;98148.09;5020465;28;20232;-75
2021/01/22 05:23:03;;;;;;;2.57;1.30;;;;;;;3.49;82.69;98140.22;5021084;28;20681;-76
2021/01/22 05:25:31;;;;;;;2.40;0.87;;;;;;;3.45;83.04;98135.28;5017774;28;20282;-76
2021/01/22 05:27:59;;;;;;;2.50;1.23;;;;;;;3.37;82.92;98133.28;5022837;28;20210;-76
2021/01/22 05:30:29;;;;;;;3.63;1.30;;;;;;;3.36;83.09;98126.25;5022747;28;20211;-75
2021/01/22 05:33:15;;;;;;;1.63;1.53;;;;;;;3.48;83.06;98129.72;5017350;28;20201;-75
2021/01/22 05:35:42;;;;;;;0.80;0.70;;;;;;;3.42;83.11;98123.13;5020095;28;20252;-76
2021/01/22 05:38:10;;;;;;;4.20;1.10;;;;;;;3.53;83.03;98122.25;5026760;28;20202;-76
2021/01/22 05:40:37;;;;;;;0.50;0.50;;;;;;;3.53;82.69;98114.28;5019157;28;20218;-76
2021/01/22 05:43:05;;;;;;;1.43;0.93;;;;;;;3.53;83.07;98116.94;5016797;28;20207;-76
2021/01/22 05:45:40;;;;;;;2.00;0.60;;;;;;;3.54;82.74;98113.31;5020996;28;20210;-76
2021/01/22 05:48:21;;;;;;;0.93;0.93;;;;;;;3.53;82.78;98103.66;5018052;28;20217;-76
2021/01/22 05:50:51;;;;;;;0.80;0.63;;;;;;;3.48;83.27;98108.50;5022568;28;20191;-76
2021/01/22 05:53:20;;;;;;;1.03;0.60;;;;;;;3.54;83.13;98108.00;5019266;28;20286;-76
2021/01/22 05:56:05;;;;;;;0.93;0.90;;;;;;;3.56;83.14;98103.41;5024442;28;20672;-76
2021/01/22 05:58:33;;;;;;;2.63;1.00;;;;;;;3.55;82.96;98102.56;5024406;28;20203;-76
2021/01/22 06:01:08;;;;;;;2.77;1.40;;;;;;;3.58;82.77;98089.06;5020710;28;20214;-76
2021/01/22 06:03:37;;;;;;;2.97;0.80;;;;;;;3.57;83.08;98089.19;5017285;28;20549;-76
2021/01/22 06:06:06;;;;;;;0.70;0.70;;;;;;;3.23;83.32;98062.75;5012854;28;20208;-76
2021/01/22 06:08:34;;;;;;;1.83;0.80;;;;;;;3.50;83.14;98095.97;5011369;28;20247;-76
2021/01/22 06:11:01;;;;;;;0.80;0.80;;;;;;;3.43;83.34;98091.16;5010870;28;20657;-76
2021/01/22 06:13:30;;;;;;;0.80;0.80;;;;;;;3.41;83.67;98089.59;5026408;28;20211;-76
2021/01/22 06:15:59;;;;;;;3.33;0.90;;;;;;;3.44;83.51;98092.00;5023250;28;20493;-75
2021/01/22 06:18:31;;;;;;;0.60;0.60;;;;;;;3.39;83.77;98087.09;5012568;28;20222;-76
2021/01/22 06:21:14;;;;;;;2.80;1.07;;;;;;;3.39;84.02;98081.78;5009792;28;20218;-75
2021/01/22 06:23:44;;;;;;;3.07;1.70;;;;;;;3.35;84.27;98079.47;5006336;28;20229;-75
2021/01/22 06:26:12;;;;;;;1.23;0.90;;;;;;;2.96;84.68;98001.38;5007402;28;20204;-74
2021/01/22 06:28:41;;;;;;;1.00;0.83;;;;;;;3.35;84.71;98064.41;5014426;28;20202;-75
2021/01/22 06:31:09;;;;;;;4.03;0.70;;;;;;;3.36;84.78;98062.59;5014486;28;20183;-75
2021/01/22 06:33:37;;;;;;;1.00;0.90;;;;;;;3.42;84.89;98057.66;5009865;28;20214;-75
2021/01/22 06:36:08;;;;;;;1.27;0.90;;;;;;;3.49;84.65;98057.97;5009004;28;20658;-76
2021/01/22 06:38:35;;;;;;;2.03;0.80;;;;;;;3.48;84.64;98034.25;5011716;28;20729;-75
2021/01/22 06:41:02;;;;;;;0.80;0.80;;;;;;;3.57;84.38;98026.34;5013313;28;20609;-76
2021/01/22 06:43:30;;;;;;;0.77;0.73;;;;;;;3.56;84.66;98029.13;5012739;28;20198;-76
2021/01/22 06:46:01;;;;;;;4.00;1.10;;;;;;;3.50;84.71;98022.53;5011145;28;20209;-75
2021/01/22 06:48:50;;;;;;;1144.60;405.17;;;;;;;3.51;85.11;98024.22;5022682;28;20289;-76
2021/01/22 06:51:17;;;;;;;3.33;2.57;;;;;;;3.54;85.21;98015.16;5019566;28;20215;-76
2021/01/22 06:54:05;;;;;;;4.43;1.33;;;;;;;3.62;85.04;98018.00;5022355;28;20212;-75
2021/01/22 06:56:32;;;;;;;2.03;1.70;;;;;;;3.53;85.47;98011.66;5022504;28;20712;-75
2021/01/22 06:59:37;;;;;;;2.70;1.50;;;;;;;3.54;85.78;98015.16;5007890;28;20217;-76
2021/01/22 07:02:38;;;;;;;0.97;0.90;;;;;;;3.53;85.84;98011.66;5007764;28;20648;-76
2021/01/22 07:05:35;;;;;;;0.70;0.70;;;;;;;3.60;85.75;98009.34;5011943;28;20203;-76
2021/01/22 07:08:02;;;;;;;0.70;0.70;;;;;;;3.61;85.79;97992.44;5011003;28;20199;-76
2021/01/22 07:11:06;;;;;;;1.53;1.17;;;;;;;3.63;86.03;97993.16;5012644;28;20206;-76
2021/01/22 07:13:35;;;;;;;1.70;1.40;;;;;;;3.62;86.25;97989.66;5010515;28;20359;-76
2021/01/22 07:16:05;;;;;;;2.60;1.10;;;;;;;3.50;86.52;97984.56;5010704;28;20202;-76
2021/01/22 07:18:34;;;;;;;0.63;0.63;;;;;;;3.43;86.54;97971.81;5013451;28;20191;-76
2021/01/22 07:21:26;;;;;;;4.70;1.00;;;;;;;3.42;86.98;97975.44;5017138;28;20244;-76
2021/01/22 07:23:55;;;;;;;3.83;1.00;;;;;;;3.46;87.14;97968.06;5013588;28;20199;-76
2021/01/22 07:26:28;;;;;;;0.67;0.67;;;;;;;3.49;87.53;97964.31;5013344;28;20294;-76
2021/01/22 07:29:16;;;;;;;0.70;0.63;;;;;;;3.51;87.29;97952.59;5028072;28;20207;-76
2021/01/22 07:31:52;;;;;;;2.10;0.90;;;;;;;3.60;87.06;97953.63;5011299;28;20256;-76
2021/01/22 07:34:41;;;;;;;1.00;0.73;;;;;;;3.52;88.08;97940.16;5014011;28;20606;-76
2021/01/22 07:37:11;;;;;;;1.57;0.80;;;;;;;3.51;87.93;97930.53;5014297;28;20231;-76
2021/01/22 07:39:39;;;;;;;0.77;0.77;;;;;;;3.56;87.96;97926.50;5013555;28;20202;-76
2021/01/22 07:42:08;;;;;;;2.13;0.70;;;;;;;3.54;88.35;97919.66;5016269;28;20203;-76
2021/01/22 07:44:36;;;;;;;0.60;0.60;;;;;;;3.55;88.42;97913.38;5014268;28;20196;-76
2021/01/22 07:47:04;;;;;;;0.50;0.50;;;;;;;3.29;88.73;97871.31;5013049;28;20203;-76
2021/01/22 07:49:32;;;;;;;0.67;0.60;;;;;;;3.33;89.43;97867.44;5011227;28;20689;-76
2021/01/22 07:52:01;;;;;;;3.43;1.70;;;;;;;3.54;89.38;97896.63;5010926;28;20199;-75
2021/01/22 07:54:39;;;;;;;2.90;0.90;;;;;;;3.62;89.17;97896.78;5007580;28;20205;-76
2021/01/22 07:57:14;;;;;;;3.07;1.00;;;;;;;3.62;89.30;97882.69;5007103;28;20230;-76
2021/01/22 07:59:42;;;;;;;1.10;0.87;;;;;;;3.58;89.64;97874.16;5009765;28;20229;-76
2021/01/22 08:02:17;;;;;;;1.43;0.90;;;;;;;3.65;89.78;97877.13;5011765;28;20210;-76
2021/01/22 08:04:46;;;;;;;0.77;0.70;;;;;;;3.65;89.73;97872.66;5009286;28;20195;-76
2021/01/22 08:07:17;;;;;;;2.37;0.97;;;;;;;3.73;89.61;97858.75;5010087;28;20275;-76
2021/01/22 08:09:52;;;;;;;1.13;0.90;;;;;;;3.78;89.58;97843.25;5005669;28;20673;-76
2021/01/22 08:12:19;;;;;;;3.43;0.77;;;;;;;3.90;88.80;97834.22;5009150;28;20252;-76
2021/01/22 08:14:46;;;;;;;2.47;0.90;;;;;;;3.93;88.92;97820.66;5007934;28;20200;-76
2021/01/22 08:17:14;;;;;;;0.67;0.67;;;;;;;3.84;89.59;97818.84;5010866;28;20216;-76
2021/01/22 08:19:42;;;;;;;0.77;0.77;;;;;;;3.79;89.92;97810.44;5006456;28;20210;-76
2021/01/22 08:22:14;;;;;;;5.63;1.77;;;;;;;3.82;89.63;97801.38;5007540;28;20205;-76
2021/01/22 08:24:46;;;;;;;1.87;0.97;;;;;;;3.85;89.79;97793.97;5012775;28;20203;-76
2021/01/22 08:27:14;;;;;;;1.77;1.13;;;;;;;3.84;89.95;97784.34;5011687;28;20672;-76
2021/01/22 08:29:43;;;;;;;1.50;0.80;;;;;;;3.78;90.74;97779.56;5013150;28;20914;-76
2021/01/22 08:32:14;;;;;;;5.00;1.07;;;;;;;3.81;90.72;97771.34;5013722;28;20452;-76
2021/01/22 08:34:42;;;;;;;1.03;0.97;;;;;;;3.89;90.44;97775.97;5025839;28;20219;-76
2021/01/22 08:37:10;;;;;;;3.03;1.00;;;;;;;3.87;90.77;97754.03;5028292;28;20250;-76
2021/01/22 08:39:47;;;;;;;4.77;1.37;;;;;;;3.88;90.98;97750.41;5028337;28;20674;-76
2021/01/22 08:42:15;;;;;;;9.20;1.40;;;;;;;3.90;90.72;97732.50;5029314;28;20233;-76
2021/01/22 08:44:56;;;;;;;3.20;1.20;;;;;;;3.59;91.08;97698.09;5028364;28;20665;-76
2021/01/22 08:47:24;;;;;;;3.17;1.47;;;;;;;3.64;91.11;97705.63;5030885;28;20265;-76
2021/01/22 08:49:57;;;;;;;2.53;1.70;;;;;;;3.92;91.57;97720.78;5027826;28;20198;-76
2021/01/22 08:52:25;;;;;;;4.30;1.10;;;;;;;4.02;91.17;97720.81;5029341;28;20198;-76
2021/01/22 08:54:54;;;;;;;3.80;1.37;;;;;;;4.00;91.42;97707.69;5027357;28;20360;-76
2021/01/22 08:57:23;;;;;;;2.40;1.60;;;;;;;4.05;91.32;97700.13;5027604;28;20209;-76
2021/01/22 08:59:53;;;;;;;2.57;1.40;;;;;;;4.00;91.02;97689.09;5026608;28;20199;-76
2021/01/22 09:02:39;;;;;;;3.37;1.60;;;;;;;4.12;90.95;97694.25;5024194;28;20231;-76
2021/01/22 09:05:12;;;;;;;3.00;1.47;;;;;;;4.12;91.09;97679.16;5027188;28;20206;-76
2021/01/22 09:07:40;;;;;;;5.97;2.07;;;;;;;4.11;91.18;97674.84;5028812;28;20211;-76
2021/01/22 09:10:26;;;;;;;1.60;1.50;;;;;;;4.20;90.83;97673.16;5022855;28;20696;-76
2021/01/22 09:12:54;;;;;;;2.57;1.50;;;;;;;4.16;91.08;97658.47;5027975;28;20198;-76
2021/01/22 09:15:22;;;;;;;2.83;1.70;;;;;;;3.90;91.53;97613.91;5020283;28;20213;-76
2021/01/22 09:17:55;;;;;;;5.17;1.80;;;;;;;4.18;91.48;97640.59;5014007;28;20239;-76
2021/01/22 09:20:25;;;;;;;3.33;2.00;;;;;;;4.13;92.06;97633.06;5017686;28;20234;-77
2021/01/22 09:22:53;;;;;;;3.93;1.60;;;;;;;4.18;92.26;97638.78;5018006;28;20201;-77
2021/01/22 09:25:22;;;;;;;2.90;1.67;;;;;;;4.18;91.82;97620.19;5015868;28;20204;-76
2021/01/22 09:27:50;;;;;;;3.90;2.10;;;;;;;4.27;91.83;97615.84;5018377;28;20204;-76
2021/01/22 09:30:20;;;;;;;4.20;2.00;;;;;;;4.30;92.03;97619.06;5015113;28;20295;-76
2021/01/22 09:32:49;;;;;;;7.27;2.17;;;;;;;4.35;92.19;97616.81;5020778;28;20206;-77
2021/01/22 09:35:18;;;;;;;4.70;1.90;;;;;;;4.55;91.58;97617.59;5035953;28;20405;-77
2021/01/22 09:37:45;;;;;;;4.00;2.07;;;;;;;4.61;91.35;97606.41;5021022;28;20646;-77
2021/01/22 09:40:13;;;;;;;3.77;2.00;;;;;;;4.58;91.69;97601.38;5027045;28;20657;-76
2021/01/22 09:42:40;;;;;;;5.20;2.33;;;;;;;4.57;91.87;97594.38;5024965;28;20215;-77
2021/01/22 09:45:09;;;;;;;10.40;2.03;;;;;;;4.24;92.29;97528.47;5022157;28;20234;-77
2021/01/22 09:47:38;;;;;;;5.03;2.33;;;;;;;4.61;92.22;97586.97;5017943;28;20304;-77
2021/01/22 09:50:07;;;;;;;4.17;2.40;;;;;;;4.71;92.09;97571.81;5021567;28;20670;-77
2021/01/22 09:52:37;;;;;;;2.53;1.93;;;;;;;4.84;91.49;97567.00;5016766;28;20589;-77
2021/01/22 09:55:07;;;;;;;4.13;2.10;;;;;;;4.81;91.86;97553.19;5021972;28;20212;-77
2021/01/22 09:57:34;;;;;;;6.43;2.30;;;;;;;4.83;92.15;97545.88;5013408;28;20226;-77
2021/01/22 10:00:04;;;;;;;3.37;2.00;;;;;;;4.87;91.64;97532.16;5018949;28;20282;-77
2021/01/22 10:02:32;;;;;;;4.93;2.40;;;;;;;4.89;91.96;97532.00;5014023;28;20628;-76
2021/01/22 10:05:00;;;;;;;8.03;2.13;;;;;;;4.68;91.80;97490.56;5011822;28;20204;-77
2021/01/22 10:07:29;;;;;;;4.13;2.30;;;;;;;5.00;91.80;97529.16;5010846;28;20196;-76
2021/01/22 10:09:57;;;;;;;3.80;2.17;;;;;;;5.05;91.66;97521.56;5014530;28;20200;-76
2021/01/22 10:12:24;;;;;;;5.37;2.57;;;;;;;4.93;91.80;97504.16;5011567;28;20211;-76
2021/01/22 10:14:51;;;;;;;6.30;2.40;;;;;;;4.98;92.24;97507.19;5009921;28;20205;-77
2021/01/22 10:17:19;;;;;;;5.43;2.67;;;;;;;5.01;91.73;97501.59;5013566;28;20205;-76
2021/01/22 10:19:46;;;;;;;6.67;2.30;;;;;;;5.07;91.89;97494.81;5015817;28;20206;-77
2021/01/22 10:22:14;;;;;;;4.17;2.70;;;;;;;5.01;92.14;97477.66;5014598;28;20306;-76
2021/01/22 10:24:42;;;;;;;5.93;1.90;;;;;;;5.06;92.18;97462.06;5010421;28;20207;-76
2021/01/22 10:27:09;;;;;;;7.50;2.07;;;;;;;5.17;91.55;97453.88;5020944;28;20202;-76
2021/01/22 10:29:36;;;;;;;5.60;2.27;;;;;;;5.15;91.68;97441.72;5012883;28;20201;-76
2021/01/22 10:32:04;;;;;;;4.70;2.83;;;;;;;5.11;91.64;97429.72;5012359;28;20207;-77
2021/01/22 10:34:31;;;;;;;4.80;2.20;;;;;;;4.97;91.71;97388.53;5016163;28;20213;-76
2021/01/22 10:36:58;;;;;;;4.33;2.37;;;;;;;5.28;92.21;97423.56;5023755;28;20246;-76
2021/01/22 10:39:26;;;;;;;7.13;2.57;;;;;;;5.25;92.04;97416.72;5016196;28;20204;-76
2021/01/22 10:41:54;;;;;;;6.50;2.17;;;;;;;5.29;92.32;97428.72;5014693;28;20216;-76
2021/01/22 10:44:21;;;;;;;5.10;2.60;;;;;;;5.36;91.97;97415.66;5012536;28;20290;-76
2021/01/22 10:46:48;;;;;;;3.73;2.50;;;;;;;5.33;91.96;97401.81;5010499;28;20697;-76
2021/01/22 10:49:15;;;;;;;6.60;2.30;;;;;;;5.45;91.57;97420.03;5013144;28;20194;-76
2021/01/22 10:51:42;;;;;;;6.53;2.57;;;;;;;5.47;91.91;97411.91;5012249;28;20680;-76
2021/01/22 10:54:10;;;;;;;5.07;2.63;;;;;;;5.52;91.39;97401.66;5009445;28;20215;-76
2021/01/22 10:56:39;;;;;;;4.57;2.40;;;;;;;5.41;92.14;97364.63;5011612;28;20204;-76
2021/01/22 10:59:06;;;;;;;7.73;2.33;;;;;;;5.54;92.24;97379.22;5011257;28;20204;-76
2021/01/22 11:01:34;;;;;;;5.53;2.73;;;;;;;5.51;91.84;97360.03;5007363;28;20228;-76
2021/01/22 11:04:02;;;;;;;3.10;2.30;;;;;;;5.53;91.90;97336.78;5020221;28;20651;-76
2021/01/22 11:06:30;;;;;;;4.13;2.33;;;;;;;5.66;91.92;97344.34;5014341;28;20205;-76
2021/01/22 11:08:57;;;;;;;7.30;2.47;;;;;;;5.71;91.67;97329.56;5015661;28;20267;-76
2021/01/22 11:11:24;;;;;;;5.03;2.07;;;;;;;5.76;91.49;97311.28;5019648;28;20202;-76
2021/01/22 11:13:52;;;;;;;3.47;2.40;;;;;;;5.73;91.53;97298.28;5019280;28;20209;-76
2021/01/22 11:16:21;;;;;;;5.63;1.90;;;;;;;5.82;91.42;97305.34;5026498;28;20205;-75
2021/01/22 11:18:48;;;;;;;5.80;2.43;;;;;;;5.87;91.21;97305.69;5019535;28;20206;-77
2021/01/22 11:21:15;;;;;;;4.63;2.37;;;;;;;5.89;91.41;97306.41;5020521;28;20230;-76
2021/01/22 11:23:42;;;;;;;3.00;2.30;;;;;;;5.95;91.64;97275.63;5018197;28;20226;-76
2021/01/22 11:26:09;;;;;;;5.30;2.20;;;;;;;6.04;90.98;97282.66;5012558;28;20214;-75
2021/01/22 11:28:36;;;;;;;5.97;2.30;;;;;;;6.03;90.88;97277.47;5012701;28;20206;-76
2021/01/22 11:31:07;;;;;;;2.87;2.13;;;;;;;6.02;91.61;97273.97;5015888;28;20202;-76
2021/01/22 11:33:34;;;;;;;4.30;2.20;;;;;;;6.05;91.16;97260.34;5009462;28;20224;-76
2021/01/22 11:36:02;;;;;;;3.27;1.97;;;;;;;6.14;91.13;97251.41;5011961;28;20237;-76
2021/01/22 11:38:29;;;;;;;8.10;2.37;;;;;;;6.11;90.65;97251.69;5012997;28;20230;-76
2021/01/22 11:40:56;;;;;;;2.13;1.70;;;;;;;6.23;90.53;97252.25;5007479;28;20234;-76
2021/01/22 11:43:23;;;;;;;2.90;2.00;;;;;;;6.16;90.36;97240.59;5009914;28;20205;-76
2021/01/22 11:45:51;;;;;;;2.47;1.83;;;;;;;6.10;90.08;97244.69;5010315;28;20282;-76
2021/01/22 11:48:19;;;;;;;4.83;2.30;;;;;;;6.16;90.47;97229.94;5008476;28;20211;-76
2021/01/22 11:50:46;;;;;;;3.93;1.57;;;;;;;6.13;90.48;97223.09;5012288;28;20312;-76
2021/01/22 11:53:13;;;;;;;5.80;1.87;;;;;;;6.07;90.21;97204.25;5009978;28;20212;-77
2021/01/22 11:55:41;;;;;;;5.63;2.00;;;;;;;6.28;89.73;97222.44;5018495;28;20210;-76